Time;durP1;ratioP1;P1;durP2;ratioP2;P2;SDS_P1;SDS_P2;PMS_P1;PMS_P2;Temp;Humidity;BMP_temperature;BMP_pressure;BME280_temperature;BME280_humidity;BME280_pressure;Samples;Min_cycle;Max_cycle;Signal;HPM_P1;HPM_P2
2022/02/19 00:00:21;;;;;;;7.13;1.25;;;;;;;7.13;60.33;98197.84;5106709;28;20457;-77
2022/02/19 00:02:47;;;;;;;11.43;1.27;;;;;;;7.07;60.67;98193.22;5113142;28;20023;-75
2022/02/19 00:05:14;;;;;;;10.50;1.35;;;;;;;6.98;60.58;98176.41;5112868;28;20028;-75
2022/02/19 00:07:39;;;;;;;8.52;1.00;;;;;;;6.99;61.44;98218.41;5112683;28;20047;-76
2022/02/19 00:10:05;;;;;;;13.50;1.52;;;;;;;7.06;59.99;98191.56;5118134;28;20086;-75
2022/02/19 00:12:30;;;;;;;7.40;1.00;;;;;;;6.96;59.93;98202.66;5111668;28;20034;-75
2022/02/19 00:14:56;;;;;;;9.75;1.38;;;;;;;6.96;60.32;98219.63;5111447;28;20015;-75
2022/02/19 00:17:22;;;;;;;9.57;2.30;;;;;;;7.04;58.77;98218.66;5108844;28;20497;-74
2022/02/19 00:19:48;;;;;;;10.98;1.23;;;;;;;6.99;58.42;98224.59;5108530;28;20012;-75
2022/02/19 00:22:14;;;;;;;9.20;1.17;;;;;;;6.88;57.63;98216.25;5112218;28;20573;-75
2022/02/19 00:24:39;;;;;;;5.88;0.95;;;;;;;6.98;56.95;98227.50;5107769;28;20475;-74
2022/02/19 00:27:04;;;;;;;7.70;1.35;;;;;;;6.70;57.64;98212.16;5106330;28;20051;-74
2022/02/19 00:29:30;;;;;;;6.78;1.23;;;;;;;6.79;57.39;98240.59;5104146;28;20042;-75
2022/02/19 00:31:55;;;;;;;15.32;1.60;;;;;;;6.85;56.57;98235.47;5104598;28;20027;-74
2022/02/19 00:34:21;;;;;;;7.63;1.10;;;;;;;6.92;57.00;98241.75;5110615;28;20093;-75
2022/02/19 00:36:46;;;;;;;7.45;1.40;;;;;;;6.86;57.44;98251.38;5110734;28;20027;-75
2022/02/19 00:39:12;;;;;;;6.20;1.15;;;;;;;6.81;57.94;98248.44;5106559;28;20089;-74
2022/02/19 00:41:38;;;;;;;7.20;1.17;;;;;;;6.83;58.08;98272.47;5104967;28;20045;-75
2022/02/19 00:44:06;;;;;;;6.50;1.23;;;;;;;6.88;58.18;98275.41;5112603;28;20020;-77
2022/02/19 00:46:31;;;;;;;6.18;1.00;;;;;;;6.80;58.49;98274.50;5108643;28;20443;-76
2022/02/19 00:48:56;;;;;;;7.07;1.10;;;;;;;6.54;58.61;98239.31;5109028;28;20083;-75
2022/02/19 00:51:22;;;;;;;12.35;1.90;;;;;;;6.72;58.72;98281.88;5109619;28;20027;-77
2022/02/19 00:53:47;;;;;;;7.55;1.10;;;;;;;6.75;58.01;98274.25;5108783;28;20058;-77
2022/02/19 00:56:12;;;;;;;9.13;1.50;;;;;;;6.70;58.56;98278.53;5107293;28;20031;-77
2022/02/19 00:58:38;;;;;;;8.50;1.40;;;;;;;6.73;58.70;98297.81;5107425;28;20092;-77
2022/02/19 01:01:04;;;;;;;8.23;1.20;;;;;;;6.74;59.04;98322.84;5108570;28;20180;-77
2022/02/19 01:03:31;;;;;;;9.00;1.33;;;;;;;6.73;58.24;98294.28;5105376;28;20028;-76
2022/02/19 01:05:57;;;;;;;9.38;1.33;;;;;;;6.74;57.85;98288.72;5111629;28;20027;-78
2022/02/19 01:08:22;;;;;;;5.75;1.15;;;;;;;6.71;58.53;98290.97;5110554;28;20043;-77
2022/02/19 01:10:48;;;;;;;5.97;1.50;;;;;;;6.77;57.90;98309.84;5109375;28;20445;-77
2022/02/19 01:13:13;;;;;;;6.35;1.35;;;;;;;6.72;58.25;98308.75;5107615;28;20031;-76
2022/02/19 01:15:38;;;;;;;8.45;1.20;;;;;;;6.66;58.37;98296.91;5106417;28;20020;-77
2022/02/19 01:18:04;;;;;;;11.43;1.23;;;;;;;6.70;57.44;98271.28;5108052;28;20081;-77
2022/02/19 01:20:29;;;;;;;13.65;1.67;;;;;;;6.81;56.73;98296.84;5106879;28;20477;-77
2022/02/19 01:22:54;;;;;;;6.82;1.27;;;;;;;6.59;57.13;98279.88;5109548;28;20028;-77
2022/02/19 01:25:20;;;;;;;8.48;1.23;;;;;;;6.64;56.73;98296.25;5110056;28;20031;-77
2022/02/19 01:27:45;;;;;;;7.60;1.10;;;;;;;6.66;56.84;98299.59;5104545;28;20019;-75
2022/02/19 01:30:10;;;;;;;6.15;1.33;;;;;;;6.78;56.46;98324.13;5105413;28;20035;-75
2022/02/19 01:32:36;;;;;;;6.60;1.30;;;;;;;6.69;56.32;98309.16;5108825;28;20023;-77
2022/02/19 01:35:02;;;;;;;10.57;1.40;;;;;;;6.52;55.99;98303.16;5101749;28;20024;-75
2022/02/19 01:37:27;;;;;;;10.27;1.38;;;;;;;6.51;57.08;98318.44;5110495;28;20023;-75
2022/02/19 01:39:53;;;;;;;15.07;1.90;;;;;;;6.49;56.52;98322.34;5110241;28;20028;-76
2022/02/19 01:42:18;;;;;;;13.60;1.77;;;;;;;6.63;55.46;98344.81;5112518;28;20028;-76
2022/02/19 01:44:46;;;;;;;9.77;1.20;;;;;;;6.45;54.86;98308.47;5113637;28;20046;-75
2022/02/19 01:47:12;;;;;;;8.70;1.05;;;;;;;6.58;55.05;98348.09;5113868;28;20577;-74
2022/02/19 01:49:37;;;;;;;6.38;1.55;;;;;;;6.40;55.20;98321.63;5112424;28;20172;-75
2022/02/19 01:52:04;;;;;;;4.10;0.80;;;;;;;6.35;54.49;98314.13;5108058;28;20024;-75
2022/02/19 01:54:30;;;;;;;8.02;0.98;;;;;;;6.54;54.68;98344.13;5108557;28;20108;-75
2022/02/19 01:56:55;;;;;;;3.70;0.98;;;;;;;6.51;54.16;98366.81;5112265;28;20056;-75
2022/02/19 01:59:21;;;;;;;7.43;0.95;;;;;;;6.41;53.96;98339.41;5111656;28;20023;-75
2022/02/19 02:01:46;;;;;;;5.18;0.77;;;;;;;6.39;53.84;98335.25;5102937;28;20146;-75
2022/02/19 02:04:12;;;;;;;4.78;0.80;;;;;;;6.36;54.92;98341.81;5105491;28;20178;-75
2022/02/19 02:06:39;;;;;;;8.55;0.95;;;;;;;6.22;54.67;98340.00;5102769;28;20023;-75
2022/02/19 02:09:04;;;;;;;11.93;2.47;;;;;;;6.28;54.29;98345.44;5106106;28;20022;-75
2022/02/19 02:11:30;;;;;;;3.83;0.68;;;;;;;6.41;53.08;98354.69;5112250;28;20036;-76
2022/02/19 02:13:56;;;;;;;7.00;0.85;;;;;;;6.36;53.99;98374.91;5110643;28;20406;-75
2022/02/19 02:16:32;;;;;;;8.60;1.20;;;;;;;6.29;54.03;98373.16;5111210;28;20054;-78
2022/02/19 02:18:57;;;;;;;4.38;0.98;;;;;;;6.01;54.61;98332.69;5104837;28;20055;-78
2022/02/19 02:21:22;;;;;;;5.68;1.13;;;;;;;6.13;54.10;98366.97;5098485;28;20114;-77
2022/02/19 02:23:48;;;;;;;5.82;1.17;;;;;;;6.16;54.97;98384.56;5110634;28;20020;-75
2022/02/19 02:26:14;;;;;;;7.88;1.13;;;;;;;5.97;54.41;98355.56;5109127;28;20027;-75
2022/02/19 02:28:39;;;;;;;9.52;1.08;;;;;;;6.13;54.39;98382.22;5107830;28;20118;-76
2022/02/19 02:31:05;;;;;;;6.07;0.98;;;;;;;5.97;55.21;98377.03;5108610;28;20527;-76
2022/02/19 02:33:30;;;;;;;8.82;1.23;;;;;;;5.98;55.22;98387.59;5106279;28;20023;-75
2022/02/19 02:35:55;;;;;;;9.00;1.13;;;;;;;5.91;55.07;98376.72;5110641;28;20068;-76
2022/02/19 02:38:21;;;;;;;8.80;1.00;;;;;;;5.92;54.54;98362.31;5112219;28;20050;-76
2022/02/19 02:40:46;;;;;;;10.32;1.13;;;;;;;5.89;55.10;98389.53;5107957;28;20091;-75
2022/02/19 02:43:11;;;;;;;5.15;1.50;;;;;;;5.88;55.54;98403.94;5111329;28;20062;-75
2022/02/19 02:45:37;;;;;;;8.95;1.65;;;;;;;5.93;54.88;98396.22;5106252;28;20020;-75
2022/02/19 02:48:03;;;;;;;8.75;1.38;;;;;;;5.78;55.49;98403.38;5108910;28;20027;-75
2022/02/19 02:50:28;;;;;;;7.15;1.58;;;;;;;5.87;55.13;98399.59;5106753;28;20023;-78
2022/02/19 02:52:54;;;;;;;7.88;1.30;;;;;;;5.86;55.76;98411.34;5108410;28;20019;-77
2022/02/19 02:55:19;;;;;;;6.53;1.58;;;;;;;5.69;55.90;98399.13;5106923;28;20248;-75
2022/02/19 02:57:44;;;;;;;7.60;1.05;;;;;;;5.82;55.79;98418.13;5111018;28;20030;-76
2022/02/19 03:00:12;;;;;;;12.02;1.27;;;;;;;5.78;55.83;98435.59;5108716;28;20387;-76
2022/02/19 03:02:38;;;;;;;10.43;1.73;;;;;;;5.71;56.18;98442.69;5107015;28;20016;-75
2022/02/19 03:05:06;;;;;;;7.22;1.38;;;;;;;5.74;56.03;98439.66;5110089;28;20019;-76
2022/02/19 03:07:32;;;;;;;10.48;1.35;;;;;;;5.67;56.51;98446.75;5107696;28;20427;-76
2022/02/19 03:09:57;;;;;;;12.73;1.30;;;;;;;5.43;56.89;98427.16;5106218;28;20077;-76
2022/02/19 03:12:23;;;;;;;5.85;0.98;;;;;;;5.41;56.56;98431.88;5106959;28;20082;-76
2022/02/19 03:14:49;;;;;;;6.93;1.00;;;;;;;5.39;56.99;98431.22;5109157;28;20023;-75
2022/02/19 03:17:14;;;;;;;7.47;1.05;;;;;;;5.38;57.41;98442.13;5110340;28;20020;-76
2022/02/19 03:19:40;;;;;;;7.95;1.10;;;;;;;5.42;56.48;98463.06;5109463;28;20031;-75
2022/02/19 03:22:05;;;;;;;5.88;1.08;;;;;;;5.39;56.53;98441.94;5111335;28;20055;-76
2022/02/19 03:24:30;;;;;;;12.10;1.40;;;;;;;5.38;57.31;98472.47;5111053;28;20100;-76
2022/02/19 03:26:58;;;;;;;9.15;1.35;;;;;;;5.27;57.89;98467.53;5106008;28;20026;-75
2022/02/19 03:29:24;;;;;;;6.82;0.98;;;;;;;5.28;57.30;98488.78;5109551;28;20031;-74
2022/02/19 03:31:50;;;;;;;9.27;1.38;;;;;;;5.10;58.27;98477.50;5107427;28;20102;-74
2022/02/19 03:34:15;;;;;;;13.75;1.63;;;;;;;5.35;57.49;98507.72;5110168;28;20160;-75
2022/02/19 03:36:41;;;;;;;6.20;0.90;;;;;;;5.27;57.91;98502.41;5102994;28;20122;-74
2022/02/19 03:39:06;;;;;;;6.50;0.90;;;;;;;5.16;58.17;98494.72;5110004;27;20027;-74
2022/02/19 03:41:32;;;;;;;8.90;1.08;;;;;;;5.09;58.73;98512.56;5104868;28;20030;-75
2022/02/19 03:43:58;;;;;;;6.38;0.98;;;;;;;5.07;58.41;98509.22;5104439;28;20031;-75
2022/02/19 03:46:23;;;;;;;11.60;1.33;;;;;;;5.19;58.28;98540.00;5109263;28;20379;-75
2022/02/19 03:48:49;;;;;;;11.98;1.40;;;;;;;4.99;59.29;98536.88;5106745;28;20031;-74
2022/02/19 03:51:14;;;;;;;10.25;1.20;;;;;;;4.91;59.02;98524.34;5102627;28;20098;-74
2022/02/19 03:53:39;;;;;;;8.95;1.40;;;;;;;4.90;58.85;98537.91;5108669;28;20030;-75
2022/02/19 03:56:05;;;;;;;6.05;0.98;;;;;;;4.94;59.15;98553.50;5109352;28;20106;-75
2022/02/19 03:58:30;;;;;;;6.50;0.80;;;;;;;4.82;59.35;98546.81;5104487;28;20045;-75
2022/02/19 04:00:55;;;;;;;11.50;2.03;;;;;;;4.80;59.79;98568.47;5111790;27;20026;-75
2022/02/19 04:03:21;;;;;;;8.48;1.23;;;;;;;4.58;59.41;98532.53;5111997;28;20038;-75
2022/02/19 04:05:47;;;;;;;12.10;1.10;;;;;;;4.87;59.63;98573.94;5112134;28;20023;-76
2022/02/19 04:08:12;;;;;;;5.45;0.95;;;;;;;4.84;59.36;98561.72;5110151;28;20034;-76
2022/02/19 04:10:39;;;;;;;7.47;1.52;;;;;;;4.67;59.75;98565.47;5104275;28;20024;-76
2022/02/19 04:13:05;;;;;;;6.00;1.05;;;;;;;4.72;59.54;98595.28;5109051;28;20096;-76
2022/02/19 04:15:30;;;;;;;7.72;0.90;;;;;;;4.61;60.51;98593.81;5106518;28;20726;-76
2022/02/19 04:17:56;;;;;;;8.65;1.40;;;;;;;4.70;59.61;98591.09;5111298;28;20015;-76
2022/02/19 04:20:21;;;;;;;11.30;1.48;;;;;;;4.71;60.06;98598.94;5108449;28;20034;-76
2022/02/19 04:22:46;;;;;;;8.10;1.08;;;;;;;4.63;60.38;98588.25;5105528;28;20152;-74
2022/02/19 04:25:12;;;;;;;8.38;1.13;;;;;;;4.79;60.60;98609.69;5107536;28;20031;-75
2022/02/19 04:27:37;;;;;;;6.68;0.95;;;;;;;4.63;60.02;98596.28;5107491;28;20038;-76
2022/02/19 04:30:04;;;;;;;10.13;1.50;;;;;;;4.63;60.31;98596.28;5109502;28;20025;-76
2022/02/19 04:32:30;;;;;;;9.05;1.45;;;;;;;4.70;60.57;98625.94;5104140;28;20030;-76
2022/02/19 04:34:55;;;;;;;10.85;1.25;;;;;;;4.61;60.77;98615.25;5120980;28;20019;-75
2022/02/19 04:37:20;;;;;;;7.10;1.05;;;;;;;4.47;60.82;98594.47;5105722;28;20410;-75
2022/02/19 04:39:46;;;;;;;6.55;1.00;;;;;;;4.30;60.95;98580.28;5100127;28;20030;-76
2022/02/19 04:42:12;;;;;;;10.40;0.70;;;;;;;4.54;61.29;98632.16;5109535;28;20072;-76
2022/02/19 04:44:38;;;;;;;8.52;1.30;;;;;;;4.56;61.50;98644.38;5106434;28;20118;-76
2022/02/19 04:47:05;;;;;;;10.00;1.40;;;;;;;4.21;61.06;98585.81;5105630;28;20031;-76
2022/02/19 04:49:30;;;;;;;6.78;1.05;;;;;;;4.37;61.70;98653.56;5108352;28;20063;-75
2022/02/19 04:51:56;;;;;;;11.68;1.42;;;;;;;4.59;61.33;98664.63;5106670;28;20083;-76
2022/02/19 04:54:21;;;;;;;15.02;1.42;;;;;;;4.30;61.86;98630.34;5105538;28;20023;-76
2022/02/19 04:56:47;;;;;;;7.97;1.33;;;;;;;4.37;60.69;98644.72;5105661;28;20028;-75
2022/02/19 04:59:12;;;;;;;12.57;1.17;;;;;;;4.30;61.60;98630.34;5106484;28;20083;-76
2022/02/19 05:01:38;;;;;;;5.28;1.10;;;;;;;4.42;61.46;98654.94;5105886;28;20617;-76
2022/02/19 05:04:03;;;;;;;5.07;0.93;;;;;;;4.07;62.03;98625.63;5106924;28;20031;-76
2022/02/19 05:06:28;;;;;;;5.32;1.17;;;;;;;4.14;62.40;98650.75;5115434;28;20027;-77
2022/02/19 05:08:54;;;;;;;7.20;1.20;;;;;;;4.10;61.64;98646.72;5105241;28;20057;-76
2022/02/19 05:11:19;;;;;;;7.93;1.60;;;;;;;4.28;62.17;98677.84;5104516;28;20481;-76
2022/02/19 05:13:46;;;;;;;9.55;1.00;;;;;;;4.12;61.49;98649.22;5105773;28;20027;-81
2022/02/19 05:16:11;;;;;;;7.30;0.93;;;;;;;4.11;62.16;98644.88;5087162;28;20036;-76
2022/02/19 05:18:37;;;;;;;7.13;1.02;;;;;;;4.12;61.76;98655.41;5097962;28;20648;-75
2022/02/19 05:21:03;;;;;;;7.00;0.73;;;;;;;4.10;62.07;98649.38;5105809;28;20114;-77
2022/02/19 05:23:29;;;;;;;9.02;1.17;;;;;;;4.25;61.51;98678.19;5106322;28;20020;-75
2022/02/19 05:25:54;;;;;;;9.70;1.25;;;;;;;4.16;62.17;98691.56;5103870;28;20114;-74
2022/02/19 05:28:19;;;;;;;10.30;1.00;;;;;;;3.89;62.18;98665.91;5102610;28;20456;-73
2022/02/19 05:30:45;;;;;;;18.15;1.60;;;;;;;4.13;62.90;98702.59;5102911;28;20032;-76
2022/02/19 05:33:10;;;;;;;14.10;1.52;;;;;;;4.10;63.13;98713.63;5110478;28;20023;-75
2022/02/19 05:35:37;;;;;;;6.55;1.13;;;;;;;4.02;62.96;98705.59;5107158;28;20030;-75
2022/02/19 05:38:02;;;;;;;9.77;1.23;;;;;;;4.06;62.73;98715.00;5114638;28;20405;-74
2022/02/19 05:40:28;;;;;;;10.63;1.00;;;;;;;4.01;62.72;98709.28;5100172;28;20020;-73
2022/02/19 05:42:53;;;;;;;12.27;1.55;;;;;;;3.89;63.04;98710.59;5106049;28;20023;-74
2022/02/19 05:45:18;;;;;;;15.15;1.70;;;;;;;4.10;62.72;98729.69;5105047;28;20061;-74
2022/02/19 05:47:44;;;;;;;11.02;1.45;;;;;;;4.01;63.00;98736.06;5109168;28;20030;-74
2022/02/19 05:50:09;;;;;;;10.98;1.35;;;;;;;4.07;63.32;98751.44;5102281;28;20085;-74
2022/02/19 05:52:35;;;;;;;9.52;1.08;;;;;;;3.89;64.23;98734.66;5106511;28;20121;-75
2022/02/19 05:55:00;;;;;;;8.95;1.25;;;;;;;3.88;63.63;98731.16;5103676;28;20031;-75
2022/02/19 05:57:26;;;;;;;6.00;0.77;;;;;;;3.91;63.84;98743.38;5105980;28;20091;-76
2022/02/19 05:59:51;;;;;;;7.97;1.35;;;;;;;3.99;63.28;98759.47;5103070;28;20055;-74
2022/02/19 06:02:17;;;;;;;10.98;1.38;;;;;;;3.83;63.94;98748.72;5115290;28;20030;-80
2022/02/19 06:04:43;;;;;;;11.07;1.30;;;;;;;3.85;63.87;98755.56;5112612;28;20565;-78
2022/02/19 06:07:09;;;;;;;7.57;1.08;;;;;;;3.79;64.22;98755.38;5135089;28;20037;-76
2022/02/19 06:09:34;;;;;;;10.75;0.85;;;;;;;3.67;63.88;98733.44;5132715;28;20027;-76
2022/02/19 06:11:59;;;;;;;7.95;0.88;;;;;;;3.72;64.35;98755.16;5122080;28;20028;-78
2022/02/19 06:14:25;;;;;;;7.72;1.10;;;;;;;3.77;64.31;98768.91;5121736;28;20036;-76
2022/02/19 06:16:50;;;;;;;7.00;1.00;;;;;;;3.74;64.45;98778.09;5108202;28;20085;-75
2022/02/19 06:19:16;;;;;;;8.88;2.05;;;;;;;3.79;63.63;98774.09;5106792;28;20199;-77
2022/02/19 06:21:42;;;;;;;11.75;0.98;;;;;;;3.84;64.07;98785.16;5099275;28;20020;-76
2022/02/19 06:24:07;;;;;;;7.35;1.23;;;;;;;3.85;63.91;98797.53;5106861;28;20032;-75
2022/02/19 06:26:33;;;;;;;6.53;1.00;;;;;;;3.99;63.83;98817.53;5100173;28;20366;-75
2022/02/19 06:28:58;;;;;;;11.73;1.20;;;;;;;3.84;63.88;98794.03;5104356;28;20027;-74
2022/02/19 06:31:24;;;;;;;15.55;1.60;;;;;;;3.91;63.92;98802.25;5106477;28;20057;-77
2022/02/19 06:33:55;;;;;;;11.18;1.92;;;;;;;4.04;63.61;98820.56;5118172;28;20024;-82
2022/02/19 06:36:21;;;;;;;10.93;1.38;;;;;;;3.93;63.73;98801.09;5099808;28;20108;-76
2022/02/19 06:38:48;;;;;;;4.45;1.02;;;;;;;4.06;63.57;98827.44;5109541;28;20371;-75
2022/02/19 06:41:13;;;;;;;7.03;1.08;;;;;;;3.90;63.74;98821.97;5103709;28;20031;-75
2022/02/19 06:43:39;;;;;;;12.35;1.30;;;;;;;3.96;63.76;98834.75;5108767;28;20024;-75
2022/02/19 06:46:05;;;;;;;4.60;0.90;;;;;;;3.90;63.11;98821.97;5111528;28;20019;-76
2022/02/19 06:48:30;;;;;;;10.00;1.50;;;;;;;4.06;63.47;98850.66;5104492;28;20114;-74
2022/02/19 06:50:56;;;;;;;8.85;0.95;;;;;;;3.84;63.55;98811.94;5105118;28;20731;-74
2022/02/19 06:53:22;;;;;;;13.57;1.63;;;;;;;3.89;64.12;98847.06;5109216;28;20043;-76
2022/02/19 06:55:47;;;;;;;12.18;1.35;;;;;;;3.81;63.40;98830.97;5105632;28;20553;-76
2022/02/19 06:58:12;;;;;;;9.60;1.40;;;;;;;3.96;63.25;98850.81;5109146;28;20029;-75
2022/02/19 07:00:38;;;;;;;7.00;1.10;;;;;;;4.10;62.54;98863.56;5109234;28;20055;-77
2022/02/19 07:03:03;;;;;;;10.80;1.20;;;;;;;4.13;62.66;98841.81;5107288;28;20027;-77
2022/02/19 07:05:28;;;;;;;10.90;1.33;;;;;;;4.28;62.20;98851.94;5103933;28;20028;-77
2022/02/19 07:07:54;;;;;;;10.48;1.20;;;;;;;4.16;63.64;98873.63;5100921;28;20138;-75
2022/02/19 07:10:19;;;;;;;12.23;1.55;;;;;;;4.05;63.64;98878.44;5103192;28;20707;-73
2022/02/19 07:12:45;;;;;;;9.63;1.08;;;;;;;3.93;63.93;98878.72;5103726;28;20045;-75
2022/02/19 07:15:11;;;;;;;7.28;1.00;;;;;;;3.89;63.24;98873.84;5102231;27;20035;-73
2022/02/19 07:17:53;;;;;;;7.07;1.25;;;;;;;4.15;64.01;98904.09;5105305;28;20031;-73
2022/02/19 07:20:21;;;;;;;7.32;1.08;;;;;;;4.03;63.43;98900.00;5101336;28;20073;-74
2022/02/19 07:22:48;;;;;;;9.65;1.10;;;;;;;3.92;63.84;98869.00;5100282;28;22472;-72
2022/02/19 07:25:13;;;;;;;9.63;1.10;;;;;;;4.06;63.11;98897.03;5099777;28;20036;-74
2022/02/19 07:27:40;;;;;;;8.68;0.95;;;;;;;4.42;62.62;98904.03;5101740;28;20072;-73
2022/02/19 07:30:07;;;;;;;10.25;1.15;;;;;;;4.23;62.98;98929.25;5097946;28;20548;-74
2022/02/19 07:32:35;;;;;;;11.82;1.25;;;;;;;4.40;62.38;98925.63;5101880;28;20398;-74
2022/02/19 07:35:00;;;;;;;6.53;0.95;;;;;;;4.27;63.47;98926.09;5095675;28;20019;-73
2022/02/19 07:37:26;;;;;;;11.65;1.20;;;;;;;4.52;63.24;98937.72;5102419;28;20030;-75
2022/02/19 07:39:51;;;;;;;8.63;1.13;;;;;;;4.59;62.49;98937.94;5099866;28;20059;-72
2022/02/19 07:43:04;;;;;;;4.93;0.73;;;;;;;4.57;62.57;98947.97;5107362;28;20054;-82
2022/02/19 07:45:29;;;;;;;7.82;0.82;;;;;;;4.56;62.01;98944.47;5110505;28;20088;-81
2022/02/19 07:48:00;;;;;;;6.22;0.80;;;;;;;4.59;61.87;98940.63;5124944;28;20104;-82
2022/02/19 07:58:37;;;;;;;6.20;0.80;;;;;;;4.75;61.63;98954.06;5097900;28;20088;-78
2022/02/19 08:01:05;;;;;;;8.32;1.27;;;;;;;4.55;61.85;98947.28;5110556;28;20023;-80
2022/02/19 08:03:32;;;;;;;11.85;1.52;;;;;;;4.80;61.42;98977.72;5112660;28;20067;-80
2022/02/19 08:05:59;;;;;;;8.45;0.82;;;;;;;4.66;62.28;98964.91;5117328;28;20047;-81
2022/02/19 08:08:25;;;;;;;8.55;0.95;;;;;;;4.69;61.91;98975.31;5110761;28;20127;-81
2022/02/19 08:10:51;;;;;;;9.50;1.30;;;;;;;4.54;62.58;98965.22;5104240;27;20082;-81
2022/02/19 08:13:19;;;;;;;7.15;1.02;;;;;;;5.00;60.67;98963.03;5101740;28;20023;-79
2022/02/19 08:15:45;;;;;;;7.63;0.90;;;;;;;5.26;60.05;98956.69;5108194;28;20053;-81
2022/02/19 08:18:12;;;;;;;7.38;1.17;;;;;;;7.03;55.24;98962.06;5106524;28;20019;-76
2022/02/19 08:20:40;;;;;;;6.70;1.23;;;;;;;6.95;54.56;98979.09;5102682;28;20079;-77
2022/02/19 08:23:06;;;;;;;14.50;1.20;;;;;;;5.64;57.24;98957.06;5096923;28;20042;-76
2022/02/19 08:25:33;;;;;;;3.88;0.88;;;;;;;7.60;53.42;98960.88;5102382;28;20027;-76
2022/02/19 08:27:58;;;;;;;9.13;0.98;;;;;;;8.13;51.48;98970.66;5096392;28;20030;-76
2022/02/19 08:30:24;;;;;;;6.05;1.25;;;;;;;9.49;48.07;98963.06;5104842;28;20371;-76
2022/02/19 08:32:50;;;;;;;4.95;1.25;;;;;;;9.41;46.93;98972.13;5101149;28;20023;-76
2022/02/19 08:35:16;;;;;;;7.20;0.90;;;;;;;11.02;44.67;98980.41;5104565;28;20142;-75
2022/02/19 08:37:42;;;;;;;9.27;1.02;;;;;;;10.18;45.90;98989.44;5106215;28;20080;-82
2022/02/19 08:40:10;;;;;;;7.15;0.90;;;;;;;8.88;48.16;98985.03;5102214;28;20460;-78
2022/02/19 08:42:37;;;;;;;9.48;1.30;;;;;;;9.19;47.81;98994.72;5099326;28;20093;-77
2022/02/19 08:45:03;;;;;;;5.53;1.15;;;;;;;8.60;49.49;99003.72;5101160;27;20038;-76
2022/02/19 08:47:28;;;;;;;5.28;1.27;;;;;;;9.26;47.74;98997.50;5099296;28;20081;-74
2022/02/19 08:49:54;;;;;;;4.95;1.40;;;;;;;9.66;46.75;98996.06;5102445;28;20036;-77
2022/02/19 08:52:19;;;;;;;4.63;1.15;;;;;;;9.28;47.98;99022.47;5100786;28;20139;-76
2022/02/19 08:54:45;;;;;;;6.40;1.00;;;;;;;10.28;45.65;99003.50;5104106;28;20019;-77
2022/02/19 08:57:10;;;;;;;6.50;1.33;;;;;;;12.05;42.35;98996.50;5105112;28;20111;-73
2022/02/19 08:59:35;;;;;;;4.82;0.73;;;;;;;12.28;41.46;99004.22;5101721;28;20031;-74
2022/02/19 09:02:01;;;;;;;8.82;1.08;;;;;;;12.89;40.31;99016.66;5101881;28;20023;-76
2022/02/19 09:04:27;;;;;;;8.27;0.88;;;;;;;12.30;40.79;99002.16;5101370;28;20035;-76
2022/02/19 09:06:53;;;;;;;6.50;1.10;;;;;;;11.88;41.55;99020.50;5114949;28;20019;-79
2022/02/19 09:09:42;;;;;;;6.65;1.50;;;;;;;10.83;41.70;98918.91;5154878;22;20139;-77
2022/02/19 09:12:08;;;;;;;5.68;1.17;;;;;;;11.22;42.90;99015.69;5091910;28;20020;-75
2022/02/19 09:14:34;;;;;;;5.22;1.00;;;;;;;11.24;42.44;99023.59;5088599;28;20046;-74
2022/02/19 09:17:00;;;;;;;4.78;1.13;;;;;;;11.56;41.88;99005.81;5087540;28;20043;-75
2022/02/19 09:19:28;;;;;;;8.45;0.90;;;;;;;12.81;39.33;99006.88;5089008;28;21080;-74
2022/02/19 09:21:54;;;;;;;10.07;1.20;;;;;;;13.76;38.65;99015.28;5090087;28;20063;-75
2022/02/19 09:24:19;;;;;;;8.98;1.10;;;;;;;12.36;41.01;99023.00;5091475;28;20608;-74
2022/02/19 09:26:44;;;;;;;10.45;1.10;;;;;;;12.18;41.58;99025.50;5090698;28;20040;-74
2022/02/19 09:29:10;;;;;;;7.50;1.60;;;;;;;12.94;39.25;99038.56;5089177;28;20051;-75
2022/02/19 09:31:35;;;;;;;6.57;1.20;;;;;;;13.71;38.59;99025.97;5083001;28;20081;-75
2022/02/19 09:34:01;;;;;;;5.10;1.50;;;;;;;13.52;39.05;99040.50;5086435;28;20016;-75
2022/02/19 09:36:26;;;;;;;4.43;0.93;;;;;;;14.65;38.30;99031.56;5090236;28;20032;-76
2022/02/19 09:38:52;;;;;;;8.35;1.45;;;;;;;13.99;37.67;99019.28;5086380;28;20069;-76
2022/02/19 09:41:17;;;;;;;6.30;1.15;;;;;;;14.43;37.10;99012.03;5083865;28;20845;-76
2022/02/19 09:43:43;;;;;;;10.68;1.33;;;;;;;15.44;35.19;99040.75;5085756;28;20077;-75
2022/02/19 09:46:09;;;;;;;6.68;1.20;;;;;;;15.72;34.71;99023.84;5086988;28;20032;-75
2022/02/19 09:48:34;;;;;;;6.97;1.75;;;;;;;13.98;37.21;99042.94;5082062;28;20139;-75
2022/02/19 09:51:01;;;;;;;7.25;1.10;;;;;;;16.07;34.82;99046.84;5079902;28;20211;-75
2022/02/19 09:53:27;;;;;;;6.47;1.17;;;;;;;17.42;33.25;99045.09;5077627;28;20582;-74
2022/02/19 09:55:53;;;;;;;9.02;2.42;;;;;;;18.22;32.01;99035.97;5078119;28;20020;-74
2022/02/19 09:58:19;;;;;;;8.10;1.40;;;;;;;17.24;32.07;99054.31;5079483;28;20029;-75
2022/02/19 10:00:46;;;;;;;4.97;1.23;;;;;;;14.93;34.45;99055.56;5083325;28;20503;-73
2022/02/19 10:03:17;;;;;;;6.30;1.45;;;;;;;15.61;33.82;99054.56;5084907;28;20061;-73
2022/02/19 10:05:43;;;;;;;7.35;0.93;;;;;;;16.39;33.54;99042.75;5082513;28;20039;-74
2022/02/19 10:08:09;;;;;;;6.70;1.20;;;;;;;14.98;34.35;99036.66;5088298;28;20473;-75
2022/02/19 10:10:37;;;;;;;5.72;1.35;;;;;;;15.38;34.10;99038.94;5101217;27;20031;-75
2022/02/19 10:13:03;;;;;;;7.95;1.35;;;;;;;15.53;34.01;99041.25;5091416;28;20558;-77
2022/02/19 10:15:39;;;;;;;10.57;0.98;;;;;;;15.21;33.86;99046.06;5095039;28;20032;-74
2022/02/19 10:18:21;;;;;;;5.75;1.00;;;;;;;14.67;34.10;99032.16;5090201;28;20024;-75
2022/02/19 10:21:11;;;;;;;9.77;1.17;;;;;;;15.20;34.77;99025.31;5092063;28;20031;-75
2022/02/19 10:23:41;;;;;;;4.43;1.05;;;;;;;15.22;34.24;99043.13;5085498;28;20136;-75
2022/02/19 10:26:08;;;;;;;6.20;1.27;;;;;;;15.74;33.76;99046.22;5092141;28;20056;-75
2022/02/19 10:28:33;;;;;;;5.65;1.20;;;;;;;15.23;33.72;99046.66;5091811;28;20027;-74
2022/02/19 10:31:14;;;;;;;4.80;0.85;;;;;;;15.24;32.92;99032.78;5089400;28;20487;-76
2022/02/19 10:33:39;;;;;;;5.68;1.00;;;;;;;15.19;33.50;99048.16;5086684;28;20080;-74
2022/02/19 10:36:13;;;;;;;5.90;1.20;;;;;;;15.62;33.16;99047.25;5086364;28;20028;-74
2022/02/19 10:39:11;;;;;;;4.40;1.20;;;;;;;16.10;33.27;99049.94;5084534;28;20024;-76
2022/02/19 10:41:41;;;;;;;5.97;1.30;;;;;;;16.01;32.19;99054.06;5044384;28;20123;-74
2022/02/19 10:44:27;;;;;;;12.60;1.15;;;;;;;15.25;33.24;99055.47;5086420;28;20024;-73
2022/02/19 10:46:55;;;;;;;6.47;1.55;;;;;;;14.96;35.20;99052.41;5088007;28;20053;-74
2022/02/19 10:49:21;;;;;;;8.73;1.33;;;;;;;15.93;33.98;99060.69;5088336;28;20119;-75
2022/02/19 10:51:46;;;;;;;5.57;1.20;;;;;;;16.51;31.17;99041.94;5087971;28;20015;-75
2022/02/19 10:54:19;;;;;;;7.07;1.52;;;;;;;17.02;31.46;99040.41;5084263;28;20150;-74
2022/02/19 10:56:44;;;;;;;3.25;0.90;;;;;;;17.86;31.02;99059.13;5080759;28;20023;-80
2022/02/19 10:59:13;;;;;;;6.65;1.05;;;;;;;16.50;31.67;99062.94;5089427;28;20403;-72
2022/02/19 11:01:49;;;;;;;6.45;0.93;;;;;;;14.38;33.80;99059.00;5086865;28;20518;-73
2022/02/19 11:04:16;;;;;;;6.03;1.17;;;;;;;13.15;35.84;99072.78;5087460;28;20072;-74
2022/02/19 11:06:42;;;;;;;3.47;0.73;;;;;;;15.07;34.83;99056.28;5088182;28;20123;-73
2022/02/19 11:09:09;;;;;;;4.47;1.25;;;;;;;15.20;33.26;99060.75;5087659;28;20031;-73
2022/02/19 11:11:37;;;;;;;4.13;1.02;;;;;;;16.84;31.57;99058.59;5085304;28;20034;-71
2022/02/19 11:14:04;;;;;;;5.97;0.88;;;;;;;16.98;30.53;99063.84;5082947;28;20020;-70
2022/02/19 11:16:30;;;;;;;3.95;0.82;;;;;;;16.57;30.92;99060.94;5085013;28;20047;-74
2022/02/19 11:18:56;;;;;;;13.45;1.67;;;;;;;16.13;31.40;99059.53;5079067;28;20028;-71
2022/02/19 11:21:23;;;;;;;7.50;1.40;;;;;;;13.85;33.85;99055.81;5083877;28;20031;-71
2022/02/19 11:23:49;;;;;;;6.90;0.85;;;;;;;16.41;31.43;99051.53;5086543;28;20035;-74
2022/02/19 11:26:17;;;;;;;6.65;0.85;;;;;;;14.86;31.34;99042.03;5083996;28;20028;-73
2022/02/19 11:28:44;;;;;;;5.72;1.15;;;;;;;13.56;33.64;99041.72;5086424;28;20102;-74
2022/02/19 11:31:11;;;;;;;8.70;1.05;;;;;;;13.12;35.20;99049.59;5092310;28;20024;-74
2022/02/19 11:33:39;;;;;;;7.05;1.15;;;;;;;13.12;34.75;99055.03;5085543;28;20117;-73
2022/02/19 11:36:09;;;;;;;3.70;0.70;;;;;;;13.82;34.18;99041.56;5085419;28;20023;-73
2022/02/19 11:38:46;;;;;;;4.88;0.90;;;;;;;14.74;32.95;99040.28;5089714;28;20031;-73
2022/02/19 11:41:14;;;;;;;5.53;1.00;;;;;;;14.00;33.43;99040.00;5087966;28;20026;-73